Terminal Aerodrome Forecast
Issued by NWS

Home | Current Version | Previous Version | Text Only | Print | Product List | Glossary On
Versions: 1 2 3 4 5 6 7 8 9 10 11 12 13
000
FTUS46 KMTR 020539
TAFOAK
TAF
KOAK 020539Z 0206/0312 31008KT P6SM FEW090 SCT120 BKN170
     FM021000 28008KT P6SM OVC009
     FM021600 28007KT P6SM OVC015
     FM021800 28009KT P6SM BKN200
     FM022100 30015KT P6SM BKN200
     FM030500 30009KT P6SM FEW015 SCT200=

USA.gov is the U.S. government's official web portal to all federal, state and local government web resources and services.